Time;durP1;ratioP1;P1;durP2;ratioP2;P2;SDS_P1;SDS_P2;PMS_P1;PMS_P2;Temp;Humidity;BMP_temperature;BMP_pressure;BME280_temperature;BME280_humidity;BME280_pressure;Samples;Min_cycle;Max_cycle;Signal;HPM_P1;HPM_P2
2023/06/23 00:00:11;;;;;;;29.05;23.27;;;;;;;18.72;97.07;101124.09;5038911;28;20466;-69
2023/06/23 00:02:40;;;;;;;27.60;23.10;;;;;;;18.70;97.45;101119.84;5038176;28;20110;-69
2023/06/23 00:05:07;;;;;;;28.05;23.33;;;;;;;18.68;97.11;101122.50;5036641;28;20532;-68
2023/06/23 00:07:33;;;;;;;29.77;22.90;;;;;;;18.67;96.32;101136.47;5030808;28;20048;-68
2023/06/23 00:09:59;;;;;;;28.10;22.83;;;;;;;18.65;97.15;101133.06;5043003;28;20564;-68
2023/06/23 00:12:24;;;;;;;26.13;22.55;;;;;;;18.65;96.64;101150.53;5042614;28;20032;-68
2023/06/23 00:14:50;;;;;;;26.63;21.85;;;;;;;18.62;96.34;101158.50;5045576;28;20127;-67
2023/06/23 00:17:15;;;;;;;29.08;22.35;;;;;;;18.61;96.61;101170.75;5045171;28;20123;-68
2023/06/23 00:19:41;;;;;;;27.73;22.10;;;;;;;18.59;96.94;101177.81;5043924;28;20072;-68
2023/06/23 00:22:06;;;;;;;26.13;20.63;;;;;;;18.58;96.94;101183.97;5041311;28;20083;-68
2023/06/23 00:24:32;;;;;;;23.83;18.58;;;;;;;18.50;96.00;101194.69;5044697;28;20029;-68
2023/06/23 00:26:57;;;;;;;23.83;19.30;;;;;;;18.48;95.96;101180.81;5035179;28;20095;-70
2023/06/23 00:29:23;;;;;;;22.70;18.05;;;;;;;18.46;95.99;101179.16;5040767;28;20033;-68
2023/06/23 00:31:49;;;;;;;26.13;18.30;;;;;;;18.44;96.01;101170.47;5042349;28;20164;-69
2023/06/23 00:34:15;;;;;;;22.25;17.40;;;;;;;18.42;96.27;101169.69;5037986;28;20114;-68
2023/06/23 00:36:40;;;;;;;21.85;16.38;;;;;;;18.38;95.47;101173.31;5038062;28;20059;-70
2023/06/23 00:39:08;;;;;;;21.80;15.43;;;;;;;18.35;94.89;101178.63;5037768;28;20116;-68
2023/06/23 00:41:34;;;;;;;21.33;15.63;;;;;;;18.35;94.80;101178.63;5032819;28;20144;-69
2023/06/23 00:43:59;;;;;;;21.13;15.93;;;;;;;18.33;94.36;101172.63;5036982;28;20795;-68
2023/06/23 00:46:26;;;;;;;34.10;15.95;;;;;;;18.32;95.09;101179.59;5034077;28;20088;-69
2023/06/23 00:48:52;;;;;;;22.08;15.23;;;;;;;18.31;95.18;101191.00;5040764;28;20067;-69
2023/06/23 00:51:18;;;;;;;20.15;15.05;;;;;;;18.32;95.36;101197.06;5038391;28;20033;-68
2023/06/23 00:53:48;;;;;;;19.67;14.85;;;;;;;18.30;95.38;101196.25;5026801;28;20123;-68
2023/06/23 00:56:22;;;;;;;19.67;14.45;;;;;;;18.28;95.04;101198.94;5033861;28;20037;-69
2023/06/23 00:58:49;;;;;;;18.80;15.32;;;;;;;18.26;95.42;101208.59;5038497;28;20102;-68
2023/06/23 01:01:15;;;;;;;20.25;14.65;;;;;;;18.24;95.47;101212.16;5037922;28;20037;-67
2023/06/23 01:03:41;;;;;;;20.77;16.00;;;;;;;18.18;94.86;101208.00;5034070;28;20115;-69
2023/06/23 01:06:46;;;;;;;20.80;15.77;;;;;;;18.11;96.12;101216.06;5039889;28;20068;-70
2023/06/23 01:09:34;;;;;;;20.40;15.15;;;;;;;17.99;97.99;101206.03;4954433;28;20150;-70
2023/06/23 01:12:11;;;;;;;22.90;16.17;;;;;;;17.88;98.28;101204.59;5027635;28;20056;-69
2023/06/23 01:15:04;;;;;;;20.42;15.18;;;;;;;17.80;98.85;101206.56;5043637;28;20039;-70
2023/06/23 01:17:39;;;;;;;22.08;16.20;;;;;;;17.79;98.39;101198.75;5016992;28;20079;-69
2023/06/23 01:20:24;;;;;;;21.25;15.57;;;;;;;17.78;98.48;101217.97;5038309;28;20393;-69
2023/06/23 01:23:07;;;;;;;;;;;;;;;17.77;98.71;101229.34;5030798;28;20059;-67
2023/06/23 01:25:40;;;;;;;22.15;15.23;;;;;;;17.76;98.11;101235.47;5032918;28;19940;-68
2023/06/23 01:28:18;;;;;;;23.08;15.30;;;;;;;17.76;97.63;101228.47;5036523;28;20037;-68
2023/06/23 01:30:47;;;;;;;26.90;17.02;;;;;;;17.77;96.85;101243.28;5029761;28;20024;-67
2023/06/23 01:33:17;;;;;;;24.70;16.20;;;;;;;17.78;96.36;101244.97;5036473;28;20033;-68
2023/06/23 01:35:49;;;;;;;25.75;16.75;;;;;;;17.77;97.01;101243.28;5039278;28;20037;-67
2023/06/23 01:38:19;;;;;;;26.33;17.33;;;;;;;17.77;96.54;101245.88;5044257;28;20059;-68
2023/06/23 01:40:50;;;;;;;23.33;14.73;;;;;;;17.77;96.58;101240.66;5036876;28;20160;-68
2023/06/23 01:43:17;;;;;;;20.50;14.23;;;;;;;17.78;96.04;101252.81;5032964;28;20042;-67
2023/06/23 01:45:43;;;;;;;15.75;11.85;;;;;;;17.77;94.31;101255.47;5035936;28;20406;-68
2023/06/23 01:48:12;;;;;;;15.95;11.98;;;;;;;17.76;94.57;101269.44;5023773;28;20063;-68
2023/06/23 01:50:40;;;;;;;17.33;11.88;;;;;;;17.74;94.71;101268.66;5043826;28;20037;-68
2023/06/23 01:53:07;;;;;;;19.42;11.27;;;;;;;17.73;93.90;101267.78;5039198;28;20040;-68
2023/06/23 01:55:34;;;;;;;17.67;10.75;;;;;;;17.72;93.29;101273.06;5028312;28;20780;-68
2023/06/23 01:58:01;;;;;;;14.90;9.73;;;;;;;17.70;92.95;101280.94;5034689;28;20041;-68
2023/06/23 02:00:28;;;;;;;14.68;9.65;;;;;;;17.69;92.93;101292.31;5035860;28;20483;-67
2023/06/23 02:02:55;;;;;;;16.02;9.85;;;;;;;17.69;92.63;101294.09;5041459;28;20048;-68
2023/06/23 02:05:25;;;;;;;15.82;9.38;;;;;;;17.69;92.14;101297.53;5041111;28;20052;-68
2023/06/23 02:07:52;;;;;;;13.23;9.32;;;;;;;17.69;90.75;101292.31;5037829;28;20190;-68
2023/06/23 02:10:19;;;;;;;15.00;10.07;;;;;;;17.72;90.19;101301.84;5036198;28;20033;-68
2023/06/23 02:12:46;;;;;;;14.13;8.20;;;;;;;17.74;89.50;101297.41;5042684;28;20025;-67
2023/06/23 02:15:14;;;;;;;11.38;8.18;;;;;;;17.74;89.19;101300.88;5043716;28;20682;-70
2023/06/23 02:17:42;;;;;;;14.15;7.90;;;;;;;17.73;89.05;101303.53;5041896;28;20838;-68
2023/06/23 02:20:16;;;;;;;10.65;7.40;;;;;;;17.72;88.62;101313.13;5026133;28;20048;-68
2023/06/23 02:22:49;;;;;;;9.82;7.20;;;;;;;17.74;88.96;101318.34;5038972;28;20484;-70
2023/06/23 02:25:16;;;;;;;12.57;7.78;;;;;;;17.71;88.52;101331.50;5036155;28;20037;-68
2023/06/23 02:27:43;;;;;;;9.10;6.82;;;;;;;17.69;88.43;101330.69;5035612;28;20029;-69
2023/06/23 02:30:10;;;;;;;15.15;8.07;;;;;;;17.62;89.33;101334.38;5041960;28;20507;-67
2023/06/23 02:32:35;;;;;;;10.93;7.07;;;;;;;17.57;89.74;101336.25;5041982;28;21443;-68
2023/06/23 02:35:05;;;;;;;10.63;6.55;;;;;;;17.53;89.46;101339.84;5043350;28;20057;-68
2023/06/23 02:37:32;;;;;;;9.65;6.30;;;;;;;17.54;89.79;101352.91;5038593;28;20048;-69
2023/06/23 02:40:01;;;;;;;10.25;7.05;;;;;;;17.55;89.58;101351.09;5035998;28;20050;-68
2023/06/23 02:42:32;;;;;;;11.57;7.20;;;;;;;17.54;89.07;101352.91;5037281;28;20736;-66
2023/06/23 02:45:02;;;;;;;11.07;7.55;;;;;;;17.57;89.24;101367.63;5042120;28;20497;-68
2023/06/23 02:47:30;;;;;;;10.05;6.80;;;;;;;17.58;88.69;101364.97;5039942;28;20033;-68
2023/06/23 02:50:02;;;;;;;14.80;7.28;;;;;;;17.61;88.31;101357.03;5040935;28;20033;-69
2023/06/23 02:52:33;;;;;;;11.95;7.25;;;;;;;17.60;89.23;101357.91;5039138;28;20045;-70
2023/06/23 02:55:03;;;;;;;12.60;7.18;;;;;;;17.60;88.25;101360.53;5035878;28;20056;-69
2023/06/23 02:57:31;;;;;;;9.85;7.10;;;;;;;17.63;88.08;101364.84;5040788;28;20048;-68
2023/06/23 03:00:00;;;;;;;13.80;6.45;;;;;;;17.63;87.82;101365.69;5033307;28;20613;-68
2023/06/23 03:02:28;;;;;;;14.32;7.00;;;;;;;17.64;87.99;101371.78;5038073;28;20091;-68
2023/06/23 03:04:57;;;;;;;13.60;7.18;;;;;;;17.63;87.58;101380.53;5039511;28;20560;-70
2023/06/23 03:07:22;;;;;;;14.02;7.50;;;;;;;17.64;87.39;101377.00;5038936;28;20040;-67
2023/06/23 03:09:47;;;;;;;15.77;7.53;;;;;;;17.63;88.17;101389.22;5033941;28;20034;-67
2023/06/23 03:12:13;;;;;;;17.38;9.02;;;;;;;17.64;87.56;101387.47;5036841;28;20017;-70
2023/06/23 03:14:39;;;;;;;13.13;8.38;;;;;;;17.63;88.52;101388.38;5042472;28;20045;-68
2023/06/23 03:17:15;;;;;;;11.02;7.88;;;;;;;17.62;88.84;101379.66;5039124;28;20029;-68
2023/06/23 03:19:43;;;;;;;19.40;9.68;;;;;;;17.61;89.14;101388.41;5040853;28;20037;-67
2023/06/23 03:22:43;;;;;;;15.48;9.75;;;;;;;17.62;89.27;101386.66;5037421;28;20049;-67
2023/06/23 03:25:16;;;;;;;17.70;9.43;;;;;;;17.61;89.95;101388.41;5024186;28;20036;-68
2023/06/23 03:27:43;;;;;;;14.07;9.90;;;;;;;17.62;90.24;101392.75;5028485;28;20086;-67
2023/06/23 03:30:17;;;;;;;14.98;11.13;;;;;;;17.60;90.30;101393.69;5037479;28;20140;-68
2023/06/23 03:32:48;;;;;;;15.30;10.48;;;;;;;17.58;90.56;101392.84;5036577;28;20103;-68
2023/06/23 03:35:26;;;;;;;18.27;10.93;;;;;;;17.54;91.71;101397.34;5036956;28;20092;-69
2023/06/23 03:37:59;;;;;;;17.27;11.13;;;;;;;17.55;91.81;101416.47;5032857;28;20041;-69
2023/06/23 03:40:26;;;;;;;16.70;10.15;;;;;;;17.53;91.61;101402.59;5030070;28;20405;-69
2023/06/23 03:43:01;;;;;;;18.60;11.23;;;;;;;17.52;91.82;101420.00;5036720;28;20136;-69
2023/06/23 03:45:29;;;;;;;13.30;9.85;;;;;;;17.52;92.00;101416.53;5039540;28;20040;-69
2023/06/23 03:48:03;;;;;;;16.63;11.00;;;;;;;17.51;92.36;101426.16;5035824;28;20577;-68
2023/06/23 03:50:33;;;;;;;16.73;11.05;;;;;;;17.52;92.62;101432.22;5036020;28;20033;-68
2023/06/23 03:53:01;;;;;;;19.65;11.48;;;;;;;17.51;92.52;101434.00;5034368;28;20059;-69
2023/06/23 03:55:30;;;;;;;18.33;10.88;;;;;;;17.51;92.81;101441.84;5034686;28;20733;-69
2023/06/23 03:57:59;;;;;;;17.83;11.30;;;;;;;17.53;92.60;101447.03;5026270;28;20063;-67
2023/06/23 04:00:26;;;;;;;17.55;11.10;;;;;;;17.54;92.54;101440.91;5033278;28;20021;-69
2023/06/23 04:02:53;;;;;;;20.45;11.98;;;;;;;17.55;92.24;101448.69;5036601;28;20063;-69
2023/06/23 04:05:21;;;;;;;17.88;11.68;;;;;;;17.57;92.11;101449.53;5033991;28;21004;-67
2023/06/23 04:07:49;;;;;;;17.10;11.20;;;;;;;17.60;92.19;101453.81;5035803;28;20472;-69
2023/06/23 04:10:18;;;;;;;16.30;11.32;;;;;;;17.60;91.65;101462.50;5030651;28;20098;-69
2023/06/23 04:12:46;;;;;;;15.02;11.02;;;;;;;17.62;92.14;101458.09;5033151;28;20043;-68
2023/06/23 04:15:13;;;;;;;16.60;11.50;;;;;;;17.64;92.03;101464.13;5036387;28;20125;-68
2023/06/23 04:17:41;;;;;;;17.70;12.25;;;;;;;17.66;91.59;101459.72;5035948;28;20029;-68
2023/06/23 04:20:09;;;;;;;20.02;11.63;;;;;;;17.71;91.61;101457.84;5036217;28;20568;-68
2023/06/23 04:22:38;;;;;;;17.15;11.95;;;;;;;17.76;91.02;101466.44;5035190;28;20056;-67
2023/06/23 04:25:06;;;;;;;19.02;11.75;;;;;;;17.81;90.93;101472.38;5031929;28;20056;-68
2023/06/23 04:27:34;;;;;;;17.33;11.70;;;;;;;17.85;91.33;101467.97;5030609;28;20690;-68
2023/06/23 04:30:02;;;;;;;18.75;11.32;;;;;;;17.91;91.19;101486.13;5027500;28;20869;-68
2023/06/23 04:32:28;;;;;;;19.38;12.77;;;;;;;17.90;90.81;101494.84;5016120;28;20037;-67
2023/06/23 04:34:53;;;;;;;19.73;12.98;;;;;;;17.86;90.71;101494.09;5042090;28;20037;-68
2023/06/23 04:37:41;;;;;;;23.27;14.20;;;;;;;17.85;90.71;101496.75;5038377;28;20041;-68
2023/06/23 04:40:37;;;;;;;26.75;15.82;;;;;;;17.86;90.76;101504.56;5035701;28;20032;-70
2023/06/23 04:43:09;;;;;;;29.67;16.58;;;;;;;17.91;91.09;101504.44;5039757;28;20045;-70
2023/06/23 04:45:40;;;;;;;24.30;17.35;;;;;;;17.85;91.02;101510.69;5042953;28;20029;-69
2023/06/23 04:48:11;;;;;;;29.88;16.92;;;;;;;17.91;91.33;101517.50;5041569;28;20083;-69
2023/06/23 04:50:40;;;;;;;23.70;17.65;;;;;;;18.05;90.89;101522.38;5036792;28;20051;-68
2023/06/23 04:53:14;;;;;;;29.00;18.83;;;;;;;18.13;89.48;101523.88;5036525;28;20041;-68
2023/06/23 04:55:41;;;;;;;;;;;;;;;18.25;88.78;101525.31;5032717;28;20052;-68
2023/06/23 04:58:09;;;;;;;24.33;18.10;;;;;;;18.29;88.31;101525.16;5034100;28;19920;-69
2023/06/23 05:00:36;;;;;;;26.42;17.80;;;;;;;18.38;88.47;101527.53;5032967;28;20037;-69
2023/06/23 05:03:03;;;;;;;22.77;17.95;;;;;;;18.41;88.34;101535.28;5032017;28;20466;-68
2023/06/23 05:05:31;;;;;;;30.08;17.75;;;;;;;18.46;88.08;101540.41;5015138;28;20783;-68
2023/06/23 05:07:59;;;;;;;26.35;17.80;;;;;;;18.49;87.85;101535.91;5032236;28;20057;-70
2023/06/23 05:10:26;;;;;;;26.92;18.02;;;;;;;18.53;87.31;101540.19;5032085;28;20045;-69
2023/06/23 05:12:54;;;;;;;28.00;18.45;;;;;;;18.45;87.38;101536.06;5034656;28;20045;-67
2023/06/23 05:15:21;;;;;;;25.55;18.00;;;;;;;18.45;87.83;101539.56;5018105;28;20059;-67
2023/06/23 05:17:49;;;;;;;28.35;19.10;;;;;;;18.34;88.18;101535.53;5036053;28;20030;-68
2023/06/23 05:20:19;;;;;;;30.42;18.13;;;;;;;18.37;88.33;101546.75;5034834;28;20623;-67
2023/06/23 05:22:47;;;;;;;23.23;18.70;;;;;;;18.36;87.74;101559.88;5035249;28;20597;-67
2023/06/23 05:25:15;;;;;;;28.20;19.13;;;;;;;18.30;88.38;101571.38;5032218;28;20037;-67
2023/06/23 05:27:44;;;;;;;25.65;19.50;;;;;;;18.28;89.02;101574.94;5031948;28;21866;-68
2023/06/23 05:30:15;;;;;;;30.65;21.67;;;;;;;18.28;89.47;101581.03;5015968;28;20025;-67
2023/06/23 05:32:42;;;;;;;30.67;21.75;;;;;;;18.23;88.85;101575.06;5035475;28;20044;-67
2023/06/23 05:35:09;;;;;;;30.23;20.13;;;;;;;18.24;89.29;101570.69;5034461;28;20037;-66
2023/06/23 05:37:37;;;;;;;32.40;21.25;;;;;;;18.23;88.94;101569.81;5025682;28;20152;-67
2023/06/23 05:40:04;;;;;;;30.65;19.98;;;;;;;18.28;89.16;101569.72;5028016;28;20037;-68
2023/06/23 05:42:32;;;;;;;28.67;20.50;;;;;;;18.32;89.44;101581.78;5036352;28;20247;-67
2023/06/23 05:44:59;;;;;;;28.05;20.77;;;;;;;18.26;89.34;101581.97;5041204;28;20024;-67
2023/06/23 05:47:29;;;;;;;40.65;21.67;;;;;;;18.20;89.44;101577.75;5037838;28;20032;-67
2023/06/23 05:49:59;;;;;;;33.38;21.38;;;;;;;18.28;89.16;101586.28;5036871;28;20044;-67
2023/06/23 05:52:27;;;;;;;31.15;21.98;;;;;;;18.33;88.82;101580.91;5035568;28;20041;-68
2023/06/23 05:54:54;;;;;;;31.80;20.25;;;;;;;18.51;87.71;101590.88;5029576;28;21013;-66
2023/06/23 05:57:31;;;;;;;28.83;21.85;;;;;;;18.77;86.52;101579.66;5032052;28;20423;-66
2023/06/23 06:00:05;;;;;;;28.42;19.73;;;;;;;18.90;85.92;101581.06;5041964;28;20032;-65
2023/06/23 06:02:35;;;;;;;28.35;20.77;;;;;;;18.92;85.16;101577.47;5039721;28;20075;-67
2023/06/23 06:05:05;;;;;;;25.67;20.40;;;;;;;18.98;85.21;101579.06;5039461;28;20087;-66
2023/06/23 06:07:32;;;;;;;25.25;19.38;;;;;;;19.15;83.83;101589.88;5037753;28;20043;-67
2023/06/23 06:10:01;;;;;;;24.83;18.85;;;;;;;19.09;83.38;101587.44;5038300;28;20045;-67
2023/06/23 06:12:28;;;;;;;24.55;18.65;;;;;;;19.23;82.66;101597.53;5040202;28;20021;-66
2023/06/23 06:14:57;;;;;;;24.00;19.35;;;;;;;19.13;82.80;101594.31;5040327;28;20067;-66
2023/06/23 06:17:24;;;;;;;24.33;19.58;;;;;;;19.08;83.39;101596.22;5039492;28;20052;-66
2023/06/23 06:19:52;;;;;;;24.50;19.42;;;;;;;19.17;82.99;101600.34;5036894;28;20037;-66
2023/06/23 06:22:19;;;;;;;26.52;19.95;;;;;;;19.21;83.11;101601.94;5039994;28;20044;-65
2023/06/23 06:24:46;;;;;;;22.00;18.30;;;;;;;19.17;82.93;101611.69;5038036;28;20053;-66
2023/06/23 06:27:14;;;;;;;24.65;18.80;;;;;;;19.17;83.03;101608.19;5032565;28;20024;-66
2023/06/23 06:29:42;;;;;;;30.35;19.70;;;;;;;19.20;82.47;101610.72;5038247;28;20357;-66
2023/06/23 06:32:08;;;;;;;28.38;20.13;;;;;;;19.15;82.56;101618.72;5034894;28;20036;-66
2023/06/23 06:34:35;;;;;;;23.08;18.95;;;;;;;19.17;82.99;101622.16;5038354;28;20033;-66
2023/06/23 06:37:01;;;;;;;26.02;17.35;;;;;;;19.24;82.95;101630.66;5037668;28;20049;-66
2023/06/23 06:39:28;;;;;;;23.35;16.38;;;;;;;19.27;83.23;101638.44;5038988;28;20060;-66
2023/06/23 06:41:57;;;;;;;24.25;18.13;;;;;;;19.23;83.30;101639.47;5035809;28;20041;-66
2023/06/23 06:44:23;;;;;;;27.08;18.40;;;;;;;19.11;83.55;101645.06;5039710;28;20033;-66
2023/06/23 06:46:50;;;;;;;26.33;18.50;;;;;;;19.01;83.71;101644.47;5040076;28;20059;-67
2023/06/23 06:49:18;;;;;;;26.40;18.08;;;;;;;19.00;84.58;101666.31;5036683;28;20051;-66
2023/06/23 06:51:45;;;;;;;27.52;19.35;;;;;;;18.99;84.15;101662.00;5037375;28;20178;-67
2023/06/23 06:54:11;;;;;;;22.95;17.65;;;;;;;19.13;83.84;101653.72;5036067;28;20118;-66
2023/06/23 06:56:37;;;;;;;21.90;18.33;;;;;;;19.38;83.63;101663.47;5035553;28;20136;-65
2023/06/23 06:59:03;;;;;;;29.42;21.70;;;;;;;19.35;82.88;101663.56;5032991;28;20037;-66
2023/06/23 07:01:29;;;;;;;27.90;20.58;;;;;;;19.40;83.19;101672.13;5038389;28;20127;-67
2023/06/23 07:03:56;;;;;;;35.72;21.27;;;;;;;19.35;82.84;101663.56;5038533;28;20118;-67
2023/06/23 07:06:21;;;;;;;26.60;20.13;;;;;;;19.41;83.01;101683.47;5019795;28;20621;-67
2023/06/23 07:08:46;;;;;;;26.88;21.60;;;;;;;19.51;82.71;101671.78;5031717;28;20063;-66
2023/06/23 07:11:13;;;;;;;27.92;20.73;;;;;;;19.64;82.42;101683.63;5023372;28;20037;-66
2023/06/23 07:13:39;;;;;;;27.88;21.45;;;;;;;19.73;82.31;101685.97;5025027;28;20041;-67
2023/06/23 07:16:04;;;;;;;30.83;22.38;;;;;;;19.75;81.50;101684.16;5028193;28;20041;-65
2023/06/23 07:18:30;;;;;;;31.17;23.25;;;;;;;19.75;81.11;101692.00;5025612;28;20028;-64
2023/06/23 07:20:56;;;;;;;31.20;25.20;;;;;;;19.83;81.62;101690.03;5027562;28;20139;-64
2023/06/23 07:23:22;;;;;;;33.75;27.02;;;;;;;19.72;81.41;101692.09;5035949;28;20045;-65
2023/06/23 07:25:47;;;;;;;32.63;27.45;;;;;;;19.87;81.25;101696.03;5031891;28;20136;-64
2023/06/23 07:28:13;;;;;;;32.60;26.08;;;;;;;19.87;80.79;101699.53;5038864;28;20037;-65
2023/06/23 07:30:39;;;;;;;38.38;27.70;;;;;;;19.75;81.16;101699.88;5037089;28;20036;-68
2023/06/23 07:33:05;;;;;;;39.53;27.98;;;;;;;19.86;81.00;101705.69;5039391;28;20132;-66
2023/06/23 07:35:31;;;;;;;36.45;28.10;;;;;;;19.96;80.18;101699.25;5036431;28;20040;-65
2023/06/23 07:37:56;;;;;;;34.75;27.38;;;;;;;20.26;79.26;101696.50;5036639;28;20123;-66
2023/06/23 07:40:21;;;;;;;32.88;25.00;;;;;;;20.36;78.40;101700.56;5031525;28;21020;-66
2023/06/23 07:42:47;;;;;;;32.75;25.67;;;;;;;20.45;78.51;101702.88;5039934;28;20048;-67
2023/06/23 07:45:12;;;;;;;33.17;25.33;;;;;;;20.48;77.85;101703.59;5041101;28;20064;-65
2023/06/23 07:47:38;;;;;;;32.10;24.98;;;;;;;20.62;77.42;101701.38;5039212;28;20757;-66
2023/06/23 07:50:04;;;;;;;32.03;23.23;;;;;;;20.79;76.54;101705.19;5047027;28;20071;-66
2023/06/23 07:52:29;;;;;;;31.05;22.65;;;;;;;20.99;76.60;101707.97;5032256;28;20159;-67
2023/06/23 07:54:55;;;;;;;27.15;21.63;;;;;;;20.99;75.50;101700.94;5037137;28;20413;-67
2023/06/23 07:57:21;;;;;;;29.60;22.95;;;;;;;21.02;75.51;101706.09;5040234;28;20719;-65
2023/06/23 07:59:47;;;;;;;27.85;21.15;;;;;;;21.17;75.02;101705.53;5039033;28;20037;-65
2023/06/23 08:02:12;;;;;;;25.88;22.27;;;;;;;21.25;74.33;101697.38;5039823;28;20287;-66
2023/06/23 08:04:38;;;;;;;27.85;22.05;;;;;;;21.42;74.51;101705.47;5031334;28;20037;-65
2023/06/23 08:07:04;;;;;;;27.10;22.25;;;;;;;21.49;73.18;101696.41;5033145;28;20049;-67
2023/06/23 08:09:29;;;;;;;28.70;22.60;;;;;;;21.61;72.67;101695.97;5033130;28;20583;-66
2023/06/23 08:11:54;;;;;;;27.70;21.52;;;;;;;21.77;71.13;101670.75;5026416;28;20382;-65
2023/06/23 08:14:20;;;;;;;23.50;20.33;;;;;;;22.05;70.76;101683.66;5036091;28;20059;-65
2023/06/23 08:16:45;;;;;;;24.60;18.67;;;;;;;21.95;69.87;101687.59;5039244;28;20127;-64
2023/06/23 08:19:11;;;;;;;21.73;17.63;;;;;;;21.98;69.63;101682.19;5037911;28;20036;-65
2023/06/23 08:21:37;;;;;;;21.30;18.02;;;;;;;22.10;70.28;101692.22;5036554;28;20786;-65
2023/06/23 08:24:02;;;;;;;19.10;16.55;;;;;;;22.22;70.47;101697.00;5039668;28;20073;-65
2023/06/23 08:26:28;;;;;;;21.60;16.65;;;;;;;22.26;70.17;101693.28;5037105;28;20029;-65
2023/06/23 08:28:53;;;;;;;19.70;16.30;;;;;;;22.23;70.82;101717.13;5035812;28;20051;-66
2023/06/23 08:31:19;;;;;;;19.67;15.98;;;;;;;22.09;70.35;101715.97;5031171;28;20545;-66
2023/06/23 08:33:44;;;;;;;17.98;14.35;;;;;;;21.99;68.91;101691.81;5037944;28;20043;-66
2023/06/23 08:36:10;;;;;;;20.88;16.90;;;;;;;21.97;69.62;101704.16;5034875;28;20028;-66
2023/06/23 08:38:35;;;;;;;16.15;12.77;;;;;;;21.94;67.97;101675.34;5033884;28;20041;-64
2023/06/23 08:41:01;;;;;;;13.25;10.07;;;;;;;21.90;66.45;101662.38;5033283;28;20414;-67
2023/06/23 08:43:27;;;;;;;15.57;12.23;;;;;;;22.02;67.42;101685.56;5032649;28;20571;-65
2023/06/23 08:45:59;;;;;;;21.73;17.17;;;;;;;21.94;70.66;101741.16;5020913;28;20071;-65
2023/06/23 08:48:29;;;;;;;16.35;13.10;;;;;;;22.07;69.06;101709.94;5036357;28;20036;-65
2023/06/23 08:50:59;;;;;;;13.65;10.98;;;;;;;22.04;66.50;101681.94;5020865;28;20037;-65
2023/06/23 08:53:25;;;;;;;14.88;13.18;;;;;;;21.99;68.75;101728.69;5034362;28;20060;-65
2023/06/23 08:55:52;;;;;;;16.80;14.63;;;;;;;22.13;69.01;101728.97;5032327;28;20843;-65
2023/06/23 08:58:19;;;;;;;16.60;13.82;;;;;;;22.24;69.14;101725.88;5033788;28;20045;-65
2023/06/23 09:00:44;;;;;;;15.93;13.38;;;;;;;22.28;68.41;101717.81;5033695;28;20038;-64
2023/06/23 09:03:10;;;;;;;17.73;14.98;;;;;;;22.38;68.73;101730.59;5035261;28;20040;-66
2023/06/23 09:05:35;;;;;;;15.57;12.90;;;;;;;22.38;69.12;101731.50;5033819;28;20052;-64
2023/06/23 09:08:01;;;;;;;15.95;12.43;;;;;;;22.41;68.98;101726.09;5036403;28;20676;-65
2023/06/23 09:10:26;;;;;;;13.73;11.40;;;;;;;22.56;66.78;101704.34;5033814;28;20045;-64
2023/06/23 09:13:07;;;;;;;12.25;9.80;;;;;;;22.56;67.68;101722.78;5033001;28;20037;-66
2023/06/23 09:15:34;;;;;;;12.05;8.73;;;;;;;22.81;66.39;101714.69;5036710;28;20028;-66
2023/06/23 09:18:02;;;;;;;13.93;10.55;;;;;;;22.67;65.18;101702.13;5039170;28;20021;-65
2023/06/23 09:20:29;;;;;;;17.67;11.02;;;;;;;22.78;64.98;101701.63;5039474;28;20033;-65
2023/06/23 09:22:55;;;;;;;13.52;8.85;;;;;;;22.98;63.45;101680.50;5036732;28;20037;-65
2023/06/23 09:25:42;;;;;;;12.55;8.70;;;;;;;23.02;63.35;101703.19;5036355;28;20052;-66
2023/06/23 09:28:39;;;;;;;9.95;8.82;;;;;;;23.22;62.00;101679.41;5038404;28;20071;-65
2023/06/23 09:31:15;;;;;;;9.93;8.55;;;;;;;23.20;62.49;101696.25;5040488;28;20606;-65
2023/06/23 09:33:51;;;;;;;11.68;9.13;;;;;;;23.10;62.21;101700.19;5037264;28;20032;-66
2023/06/23 09:36:17;;;;;;;12.80;8.05;;;;;;;23.40;61.71;101688.25;5037001;28;20809;-66
2023/06/23 09:38:43;;;;;;;15.95;8.40;;;;;;;23.47;59.95;101670.38;5040298;28;20029;-67
2023/06/23 09:41:14;;;;;;;9.98;6.93;;;;;;;23.28;61.64;101696.75;5019431;28;20041;-65
2023/06/23 09:43:41;;;;;;;9.13;7.00;;;;;;;23.44;60.11;101680.16;5040342;28;20091;-66
2023/06/23 09:46:08;;;;;;;9.35;6.75;;;;;;;23.75;60.58;101692.72;5037931;28;20810;-65
2023/06/23 09:48:34;;;;;;;10.07;7.43;;;;;;;23.80;58.54;101663.47;5041021;28;20039;-66
2023/06/23 09:51:01;;;;;;;8.55;6.22;;;;;;;23.85;57.75;101657.03;5040709;28;20025;-67
2023/06/23 09:53:31;;;;;;;7.57;6.10;;;;;;;24.01;57.89;101674.78;5016201;28;20067;-66
2023/06/23 09:55:57;;;;;;;9.73;7.10;;;;;;;23.93;57.62;101681.25;5032076;28;20088;-66
2023/06/23 09:58:23;;;;;;;9.40;6.60;;;;;;;23.73;57.44;101680.53;5033101;28;20040;-65
2023/06/23 10:00:58;;;;;;;5.85;5.22;;;;;;;23.53;56.54;101670.06;5036702;28;20133;-65
2023/06/23 10:03:26;;;;;;;8.05;4.85;;;;;;;23.71;55.27;101656.84;5037936;28;20108;-66
2023/06/23 10:05:56;;;;;;;7.18;5.43;;;;;;;23.97;54.87;101661.75;5037239;28;20844;-64
2023/06/23 10:08:21;;;;;;;8.68;4.82;;;;;;;24.21;53.77;101651.72;5038901;28;20056;-65
2023/06/23 10:10:46;;;;;;;9.15;5.00;;;;;;;24.23;55.29;101683.34;5035036;28;20521;-65
2023/06/23 10:13:12;;;;;;;10.80;6.38;;;;;;;24.42;55.15;101684.13;5039947;28;20069;-65
2023/06/23 10:15:41;;;;;;;8.50;5.80;;;;;;;24.55;56.53;101701.91;5039550;28;20095;-65
2023/06/23 10:18:06;;;;;;;9.05;6.25;;;;;;;24.53;55.36;101695.00;5020585;28;20032;-64
2023/06/23 10:20:32;;;;;;;9.88;6.22;;;;;;;24.29;56.36;101702.38;5037900;28;20033;-64
2023/06/23 10:22:58;;;;;;;9.38;6.20;;;;;;;24.19;57.12;101732.88;5033454;28;20414;-64
2023/06/23 10:25:26;;;;;;;9.18;5.85;;;;;;;24.23;57.19;101725.63;5033708;28;20037;-64
2023/06/23 10:27:55;;;;;;;9.93;7.68;;;;;;;24.20;56.51;101720.47;5033382;28;20410;-65
2023/06/23 10:30:22;;;;;;;10.30;6.82;;;;;;;24.58;55.88;101714.13;5040224;28;20107;-65
2023/06/23 10:32:55;;;;;;;9.30;7.72;;;;;;;24.65;54.46;101693.50;5034785;28;20033;-65
2023/06/23 10:35:22;;;;;;;8.73;7.40;;;;;;;24.33;55.60;101718.94;5037933;28;20067;-64
2023/06/23 10:37:49;;;;;;;8.57;7.05;;;;;;;24.44;54.88;101709.53;5037229;28;20037;-63
2023/06/23 10:40:20;;;;;;;8.85;6.85;;;;;;;24.91;55.96;101730.91;5030268;28;20041;-65
2023/06/23 10:42:49;;;;;;;8.70;7.57;;;;;;;24.51;54.75;101713.59;5036315;28;20029;-65
2023/06/23 10:45:14;;;;;;;8.38;7.13;;;;;;;24.75;54.69;101705.38;5036559;28;20087;-65
2023/06/23 10:47:40;;;;;;;8.35;6.78;;;;;;;25.27;54.06;101701.63;5043194;28;20060;-65
2023/06/23 10:50:10;;;;;;;12.30;7.72;;;;;;;25.15;52.56;101669.69;5038455;28;20044;-65
2023/06/23 10:52:37;;;;;;;11.63;8.48;;;;;;;24.82;53.21;101690.88;5035864;28;20146;-65
2023/06/23 10:55:41;;;;;;;10.73;7.63;;;;;;;24.89;53.78;101692.25;5039204;28;20606;-65
2023/06/23 10:58:11;;;;;;;7.10;6.20;;;;;;;25.34;53.87;101692.44;5039352;28;20048;-65
2023/06/23 11:00:37;;;;;;;8.20;6.40;;;;;;;25.28;53.04;101679.53;5035306;28;20032;-65
2023/06/23 11:03:08;;;;;;;7.38;6.13;;;;;;;24.83;55.33;101714.59;5037758;28;20359;-66
2023/06/23 11:05:34;;;;;;;11.20;7.32;;;;;;;24.52;54.65;101710.00;5040990;28;20092;-65
2023/06/23 11:08:04;;;;;;;9.60;7.72;;;;;;;24.85;54.29;101688.91;5038692;28;20045;-65
2023/06/23 11:10:50;;;;;;;7.38;6.57;;;;;;;24.91;53.44;101682.44;5036775;28;20598;-64
2023/06/23 11:13:15;;;;;;;8.23;7.32;;;;;;;25.12;53.83;101691.00;5039318;28;20067;-65
2023/06/23 11:15:50;;;;;;;9.40;6.95;;;;;;;25.40;52.39;101663.00;5026168;28;20745;-66
2023/06/23 11:18:21;;;;;;;9.68;6.95;;;;;;;25.43;52.87;101677.88;5038286;28;20033;-66
2023/06/23 11:20:47;;;;;;;8.38;6.30;;;;;;;25.28;52.13;101676.03;5034040;28;21030;-66